Time;durP1;ratioP1;P1;durP2;ratioP2;P2;SDS_P1;SDS_P2;PMS_P1;PMS_P2;Temp;Humidity;BMP_temperature;BMP_pressure;BME280_temperature;BME280_humidity;BME280_pressure;Samples;Min_cycle;Max_cycle;Signal;HPM_P1;HPM_P2
2023/04/14 00:00:33;;;;;;;4.53;4.07;;;8.10;99.90;;;;;;5055509;28;20025;-64
2023/04/14 00:03:02;;;;;;;5.78;4.45;;;8.10;99.90;;;;;;5055109;28;20059;-64
2023/04/14 00:05:32;;;;;;;4.70;4.20;;;8.00;99.90;;;;;;5055340;28;20033;-64
2023/04/14 00:07:58;;;;;;;4.88;4.28;;;8.00;99.90;;;;;;5054586;28;20063;-65
2023/04/14 00:10:25;;;;;;;4.68;3.90;;;8.00;99.90;;;;;;5055216;28;20025;-65
2023/04/14 00:12:50;;;;;;;4.93;4.47;;;8.00;99.90;;;;;;5055244;28;20515;-65
2023/04/14 00:15:16;;;;;;;6.05;4.57;;;7.90;99.90;;;;;;5054742;28;20064;-65
2023/04/14 00:17:42;;;;;;;4.82;4.18;;;7.90;99.90;;;;;;5054678;28;20036;-65
2023/04/14 00:20:08;;;;;;;6.68;4.70;;;7.90;99.90;;;;;;5054943;28;20156;-65
2023/04/14 00:22:34;;;;;;;5.20;4.35;;;7.80;99.90;;;;;;5055099;28;20466;-64
2023/04/14 00:25:00;;;;;;;6.95;4.75;;;7.80;99.90;;;;;;5054542;28;20078;-64
2023/04/14 00:27:26;;;;;;;5.15;4.18;;;7.70;99.90;;;;;;5054725;28;20413;-65
2023/04/14 00:29:52;;;;;;;5.45;4.53;;;7.80;99.90;;;;;;5055007;28;20139;-65
2023/04/14 00:32:18;;;;;;;4.90;4.05;;;7.70;99.90;;;;;;5054290;28;20029;-64
2023/04/14 00:34:44;;;;;;;4.38;3.47;;;7.80;99.90;;;;;;5054535;28;20037;-64
2023/04/14 00:37:09;;;;;;;3.85;3.50;;;7.70;99.90;;;;;;5054384;28;20060;-64
2023/04/14 00:39:35;;;;;;;4.35;3.42;;;7.70;99.90;;;;;;5054495;28;20462;-64
2023/04/14 00:42:01;;;;;;;4.00;3.08;;;7.80;99.90;;;;;;5054243;28;20044;-65
2023/04/14 00:44:27;;;;;;;3.90;3.50;;;7.80;99.90;;;;;;5054211;28;20401;-64
2023/04/14 00:46:53;;;;;;;3.72;3.20;;;7.80;99.90;;;;;;5041242;28;20021;-64
2023/04/14 00:49:19;;;;;;;3.30;3.00;;;7.80;99.90;;;;;;5033991;28;20465;-65
2023/04/14 00:51:46;;;;;;;4.78;3.05;;;7.80;99.90;;;;;;5034336;28;20538;-65
2023/04/14 00:54:16;;;;;;;4.65;3.38;;;7.70;99.90;;;;;;5034121;28;20040;-64
2023/04/14 00:56:42;;;;;;;5.00;3.15;;;7.80;99.90;;;;;;5034564;28;20079;-64
2023/04/14 00:59:08;;;;;;;4.32;2.55;;;7.70;99.90;;;;;;5034128;28;20033;-65
2023/04/14 01:01:37;;;;;;;2.50;2.22;;;7.70;99.90;;;;;;5034423;28;20125;-65
2023/04/14 01:04:03;;;;;;;3.15;1.90;;;7.60;99.90;;;;;;5033927;28;20060;-65
2023/04/14 01:06:29;;;;;;;3.58;2.08;;;7.60;99.90;;;;;;5034306;28;20035;-65
2023/04/14 01:08:56;;;;;;;3.05;1.65;;;7.50;99.90;;;;;;5034052;28;20440;-65
2023/04/14 01:11:38;;;;;;;1.88;1.65;;;7.50;99.90;;;;;;5033773;28;20501;-64
2023/04/14 01:14:36;;;;;;;1.92;1.73;;;7.40;99.90;;;;;;5033557;28;20462;-64
2023/04/14 01:17:52;;;;;;;2.00;1.55;;;7.40;99.90;;;;;;5034172;28;20030;-64
2023/04/14 01:20:29;;;;;;;2.50;1.30;;;7.30;99.90;;;;;;5011550;28;20033;-64
2023/04/14 01:23:05;;;;;;;1.90;1.30;;;7.30;99.90;;;;;;5011985;28;20545;-64
2023/04/14 01:25:51;;;;;;;2.47;1.50;;;7.20;99.90;;;;;;5011861;28;20046;-64
2023/04/14 01:28:20;;;;;;;2.55;1.30;;;7.20;99.90;;;;;;5010703;28;20041;-66
2023/04/14 01:31:15;;;;;;;1.63;1.17;;;7.20;99.90;;;;;;5011857;28;20124;-65
2023/04/14 01:33:45;;;;;;;1.38;0.98;;;7.10;99.90;;;;;;5011839;28;20071;-65
2023/04/14 01:36:30;;;;;;;1.85;0.93;;;7.10;99.90;;;;;;5011374;28;20030;-65
2023/04/14 01:38:57;;;;;;;1.02;0.70;;;7.10;99.90;;;;;;5011736;28;20049;-65
2023/04/14 01:41:26;;;;;;;1.17;0.88;;;7.00;99.90;;;;;;5011231;28;20130;-65
2023/04/14 01:43:54;;;;;;;1.20;0.98;;;6.90;99.90;;;;;;5012114;28;20053;-66
2023/04/14 01:46:20;;;;;;;1.33;0.80;;;6.90;99.90;;;;;;5030309;28;20033;-65
2023/04/14 01:48:48;;;;;;;1.88;0.70;;;6.80;99.90;;;;;;5031601;28;20071;-65
2023/04/14 01:51:18;;;;;;;2.38;0.55;;;6.70;99.90;;;;;;5045469;28;20397;-65
2023/04/14 01:53:45;;;;;;;1.38;0.60;;;6.70;99.90;;;;;;5053500;28;20025;-65
2023/04/14 01:56:13;;;;;;;1.27;0.63;;;6.60;99.90;;;;;;5052948;28;20112;-66
2023/04/14 01:58:41;;;;;;;0.60;0.60;;;6.50;99.90;;;;;;5053185;28;20027;-64
2023/04/14 02:01:07;;;;;;;0.73;0.68;;;6.50;99.90;;;;;;5052615;28;20021;-67
2023/04/14 02:03:34;;;;;;;1.13;0.63;;;6.40;99.90;;;;;;5053027;28;20094;-65
2023/04/14 02:06:03;;;;;;;0.60;0.60;;;6.30;99.90;;;;;;5053176;28;20064;-65
2023/04/14 02:08:31;;;;;;;0.80;0.60;;;6.30;99.90;;;;;;5052423;28;20029;-66
2023/04/14 02:11:00;;;;;;;1.05;0.70;;;6.20;99.90;;;;;;5053070;28;20025;-65
2023/04/14 02:13:27;;;;;;;0.60;0.60;;;6.10;99.90;;;;;;5052627;28;20083;-65
2023/04/14 02:15:54;;;;;;;1.80;0.70;;;6.10;99.90;;;;;;5052983;28;20028;-65
2023/04/14 02:18:21;;;;;;;0.80;0.80;;;6.10;99.90;;;;;;5052250;28;20037;-65
2023/04/14 02:20:48;;;;;;;1.02;0.70;;;6.10;99.90;;;;;;5053168;28;20028;-65
2023/04/14 02:23:14;;;;;;;0.75;0.60;;;6.00;99.90;;;;;;5052310;28;20049;-65
2023/04/14 02:25:48;;;;;;;0.93;0.80;;;6.00;99.90;;;;;;5052896;28;20033;-65
2023/04/14 02:28:18;;;;;;;0.52;0.52;;;6.00;99.90;;;;;;5052458;28;20017;-64
2023/04/14 02:30:49;;;;;;;0.80;0.75;;;5.90;99.90;;;;;;5053072;28;20071;-64
2023/04/14 02:33:20;;;;;;;1.85;0.85;;;5.90;99.90;;;;;;5052213;28;20032;-65
2023/04/14 02:35:51;;;;;;;1.48;0.90;;;5.90;99.90;;;;;;5052771;28;20033;-64
2023/04/14 02:38:47;;;;;;;3.13;0.80;;;5.80;99.90;;;;;;5052691;28;20107;-65
2023/04/14 02:41:25;;;;;;;1.10;0.77;;;5.80;99.90;;;;;;5053141;28;20025;-65
2023/04/14 02:44:14;;;;;;;0.70;0.63;;;5.70;99.90;;;;;;5034914;28;20061;-64
2023/04/14 02:46:44;;;;;;;0.70;0.65;;;5.60;99.90;;;;;;5028930;28;20129;-64
2023/04/14 02:49:13;;;;;;;1.38;0.75;;;5.60;99.90;;;;;;5032577;28;20429;-71
2023/04/14 02:51:40;;;;;;;1.13;0.80;;;5.60;99.90;;;;;;5032855;28;20156;-66
2023/04/14 02:54:06;;;;;;;1.85;0.80;;;5.50;99.90;;;;;;5032705;28;20055;-66
2023/04/14 02:56:33;;;;;;;1.33;0.80;;;5.50;99.90;;;;;;5032584;28;20042;-64
2023/04/14 02:59:00;;;;;;;1.55;1.00;;;5.40;99.90;;;;;;5032406;28;20091;-65
2023/04/14 03:01:27;;;;;;;1.15;0.70;;;5.40;99.90;;;;;;5032301;28;20088;-65
2023/04/14 03:03:56;;;;;;;0.80;0.70;;;5.40;99.90;;;;;;5032302;28;20179;-65
2023/04/14 03:06:23;;;;;;;1.00;0.70;;;5.40;99.90;;;;;;5031818;28;20514;-65
2023/04/14 03:08:52;;;;;;;2.75;0.70;;;5.30;99.90;;;;;;5032390;28;20025;-64
2023/04/14 03:11:20;;;;;;;0.80;0.50;;;5.30;99.90;;;;;;5032019;28;20040;-65
2023/04/14 03:13:47;;;;;;;0.80;0.50;;;5.30;99.90;;;;;;5032597;28;20041;-65
2023/04/14 03:16:14;;;;;;;1.65;0.57;;;5.30;99.90;;;;;;5032204;28;20026;-66
2023/04/14 03:18:41;;;;;;;1.50;0.95;;;5.20;99.90;;;;;;5032426;28;20021;-65
2023/04/14 03:21:06;;;;;;;1.13;0.90;;;5.20;99.90;;;;;;5032286;28;20113;-66
2023/04/14 03:23:35;;;;;;;0.73;0.60;;;5.20;99.90;;;;;;5032016;28;20037;-66
2023/04/14 03:26:02;;;;;;;0.70;0.60;;;5.20;99.90;;;;;;5032452;28;20068;-64
2023/04/14 03:28:31;;;;;;;0.95;0.80;;;5.10;99.90;;;;;;5031951;28;20067;-65
2023/04/14 03:31:00;;;;;;;0.80;0.60;;;5.10;99.90;;;;;;5031973;28;20470;-64
2023/04/14 03:33:27;;;;;;;1.35;0.75;;;5.10;99.90;;;;;;5031878;28;20378;-65
2023/04/14 03:35:56;;;;;;;0.57;0.50;;;5.00;99.90;;;;;;5031986;28;20033;-65
2023/04/14 03:38:26;;;;;;;1.35;0.80;;;5.00;99.90;;;;;;5031828;28;20040;-66
2023/04/14 03:40:53;;;;;;;0.60;0.60;;;4.90;99.90;;;;;;5036898;28;20044;-64
2023/04/14 03:43:21;;;;;;;0.70;0.70;;;4.90;99.90;;;;;;5051974;28;20472;-66
2023/04/14 03:45:48;;;;;;;0.50;0.45;;;4.80;99.90;;;;;;5052124;28;20067;-64
2023/04/14 03:48:18;;;;;;;0.88;0.50;;;4.70;99.90;;;;;;5052094;28;20029;-65
2023/04/14 03:50:48;;;;;;;1.52;0.60;;;4.70;99.90;;;;;;5052145;28;20102;-66
2023/04/14 03:53:16;;;;;;;1.88;0.50;;;4.60;99.90;;;;;;5055594;28;20025;-64
2023/04/14 03:55:45;;;;;;;1.38;0.60;;;4.60;99.90;;;;;;5055320;28;20029;-65
2023/04/14 03:58:12;;;;;;;0.60;0.52;;;4.50;99.90;;;;;;5055285;28;20098;-65
2023/04/14 04:00:39;;;;;;;0.60;0.50;;;4.40;99.90;;;;;;5055397;28;20099;-65
2023/04/14 04:03:04;;;;;;;0.43;0.43;;;4.40;99.90;;;;;;5055604;28;20029;-64
2023/04/14 04:05:32;;;;;;;0.68;0.60;;;4.40;99.90;;;;;;5054861;28;20523;-65
2023/04/14 04:08:03;;;;;;;0.60;0.60;;;4.40;99.90;;;;;;5055284;28;20033;-64
2023/04/14 04:10:33;;;;;;;0.82;0.70;;;4.40;99.90;;;;;;5054742;28;20032;-65
2023/04/14 04:13:01;;;;;;;1.85;0.60;;;4.30;99.90;;;;;;5055364;28;20040;-65
2023/04/14 04:15:28;;;;;;;1.17;0.52;;;4.30;99.90;;;;;;5054914;28;20539;-65
2023/04/14 04:17:54;;;;;;;0.45;0.45;;;4.30;99.90;;;;;;5055171;28;20400;-65
2023/04/14 04:20:22;;;;;;;0.63;0.50;;;4.30;99.90;;;;;;5054521;28;20462;-65
2023/04/14 04:22:51;;;;;;;1.35;0.50;;;4.30;99.90;;;;;;5055372;28;20053;-65
2023/04/14 04:25:17;;;;;;;0.70;0.50;;;4.30;99.90;;;;;;5054988;28;20039;-65
2023/04/14 04:27:43;;;;;;;0.93;0.65;;;4.30;99.90;;;;;;5054568;28;20025;-65
2023/04/14 04:30:10;;;;;;;0.55;0.50;;;4.30;99.90;;;;;;5054949;28;20017;-65
2023/04/14 04:32:37;;;;;;;0.75;0.50;;;4.30;99.90;;;;;;5054268;28;20079;-65
2023/04/14 04:35:05;;;;;;;1.52;0.70;;;4.30;99.90;;;;;;5054867;28;20342;-64
2023/04/14 04:37:32;;;;;;;0.77;0.60;;;4.30;99.90;;;;;;5054449;28;20025;-64
2023/04/14 04:39:58;;;;;;;2.35;0.70;;;4.20;99.90;;;;;;5050151;28;20044;-66
2023/04/14 04:42:23;;;;;;;0.35;0.35;;;4.20;99.90;;;;;;5034528;28;20445;-66
2023/04/14 04:44:50;;;;;;;0.60;0.60;;;4.20;99.90;;;;;;5034788;28;20471;-65
2023/04/14 04:47:15;;;;;;;0.70;0.50;;;4.20;99.90;;;;;;5034791;28;20095;-65
2023/04/14 04:49:41;;;;;;;0.63;0.50;;;4.20;99.90;;;;;;5034161;28;20030;-65
2023/04/14 04:52:07;;;;;;;0.88;0.60;;;4.20;99.90;;;;;;5032910;28;20108;-66
2023/04/14 04:54:32;;;;;;;1.00;0.50;;;4.20;99.90;;;;;;5034202;28;20036;-64
2023/04/14 04:56:58;;;;;;;1.00;0.70;;;4.20;99.90;;;;;;5034596;28;20466;-65
2023/04/14 04:59:24;;;;;;;2.15;0.80;;;4.20;99.90;;;;;;5033810;28;20032;-65
2023/04/14 05:01:50;;;;;;;0.95;0.50;;;4.20;99.90;;;;;;5034291;28;20021;-66
2023/04/14 05:04:16;;;;;;;1.75;0.80;;;4.20;99.90;;;;;;5032522;28;20040;-66
2023/04/14 05:06:41;;;;;;;1.15;0.70;;;4.20;99.90;;;;;;5033838;28;20026;-65
2023/04/14 05:09:07;;;;;;;1.35;0.70;;;4.10;99.90;;;;;;5033983;28;20493;-66
2023/04/14 05:11:34;;;;;;;0.85;0.73;;;4.10;99.90;;;;;;5032160;28;20041;-65
2023/04/14 05:14:00;;;;;;;1.30;0.70;;;4.10;99.90;;;;;;5034071;28;20164;-64
2023/04/14 05:16:27;;;;;;;4.07;0.70;;;4.00;99.90;;;;;;5033605;28;20030;-65
2023/04/14 05:18:52;;;;;;;1.17;0.73;;;4.00;99.90;;;;;;5032809;28;20048;-66
2023/04/14 05:21:18;;;;;;;1.45;0.80;;;4.00;99.90;;;;;;5033961;28;20021;-65
2023/04/14 05:23:45;;;;;;;0.65;0.60;;;4.00;99.90;;;;;;5033361;28;20026;-65
2023/04/14 05:26:12;;;;;;;1.33;0.70;;;4.00;99.90;;;;;;5033804;28;20439;-64
2023/04/14 05:28:38;;;;;;;0.60;0.50;;;4.00;99.90;;;;;;5033590;28;20087;-65
2023/04/14 05:31:04;;;;;;;1.23;0.63;;;4.00;99.90;;;;;;5032739;28;20431;-64
2023/04/14 05:33:30;;;;;;;0.50;0.40;;;4.00;99.90;;;;;;5033254;28;20079;-64
2023/04/14 05:35:55;;;;;;;0.98;0.60;;;4.00;99.90;;;;;;5033668;28;20033;-65
2023/04/14 05:38:21;;;;;;;1.17;0.55;;;4.00;99.90;;;;;;5033706;28;20039;-65
2023/04/14 05:40:47;;;;;;;0.40;0.40;;;4.00;99.90;;;;;;5033059;28;20025;-65
2023/04/14 05:43:14;;;;;;;0.55;0.50;;;3.90;99.90;;;;;;5032896;28;20463;-66
2023/04/14 05:45:40;;;;;;;2.17;0.50;;;4.00;99.90;;;;;;5031739;28;20060;-64
2023/04/14 05:48:06;;;;;;;1.17;0.77;;;4.00;99.90;;;;;;5033183;28;20033;-65
2023/04/14 05:50:36;;;;;;;0.75;0.70;;;4.00;99.90;;;;;;5052594;28;20036;-65
2023/04/14 05:53:02;;;;;;;1.00;0.88;;;4.00;99.90;;;;;;5053157;28;20029;-66
2023/04/14 05:55:27;;;;;;;0.70;0.40;;;4.00;99.90;;;;;;5051253;28;20381;-66
2023/04/14 05:57:53;;;;;;;1.20;0.63;;;4.00;99.90;;;;;;5052721;28;20119;-65
2023/04/14 06:00:19;;;;;;;1.63;0.63;;;4.00;99.90;;;;;;5052891;28;20044;-65
2023/04/14 06:02:44;;;;;;;1.48;0.60;;;4.00;99.90;;;;;;5052245;28;20040;-65
2023/04/14 06:05:11;;;;;;;0.80;0.63;;;4.00;99.90;;;;;;5051923;28;20072;-65
2023/04/14 06:07:38;;;;;;;1.05;0.70;;;4.00;99.90;;;;;;5052209;28;20053;-65
2023/04/14 06:10:04;;;;;;;1.10;0.70;;;4.00;99.90;;;;;;5052767;28;20499;-65
2023/04/14 06:12:30;;;;;;;1.02;0.60;;;4.00;99.90;;;;;;5052208;28;20454;-66
2023/04/14 06:14:55;;;;;;;0.93;0.60;;;4.00;99.90;;;;;;5052251;28;20059;-65
2023/04/14 06:17:21;;;;;;;1.77;0.73;;;4.00;99.90;;;;;;5052242;28;20036;-65
2023/04/14 06:19:47;;;;;;;0.90;0.65;;;4.00;99.90;;;;;;5051838;28;20462;-65
2023/04/14 06:22:20;;;;;;;1.35;0.70;;;4.00;99.90;;;;;;5052631;28;20021;-65
2023/04/14 06:24:45;;;;;;;1.77;0.75;;;4.00;99.90;;;;;;5052021;28;20041;-65
2023/04/14 06:27:11;;;;;;;0.68;0.68;;;4.00;99.90;;;;;;5052171;28;20432;-65
2023/04/14 06:29:37;;;;;;;1.25;0.80;;;4.00;99.90;;;;;;5052052;28;20354;-66
2023/04/14 06:32:02;;;;;;;1.67;0.82;;;4.10;99.90;;;;;;5052407;28;20381;-66
2023/04/14 06:34:28;;;;;;;1.70;0.70;;;4.10;99.90;;;;;;5052240;28;20442;-64
2023/04/14 06:36:55;;;;;;;1.23;0.70;;;4.10;99.90;;;;;;5051596;28;20363;-65
2023/04/14 06:39:21;;;;;;;1.02;0.90;;;4.10;99.90;;;;;;5052368;28;20112;-65
2023/04/14 06:41:47;;;;;;;1.35;0.88;;;4.10;99.90;;;;;;5051782;28;20108;-65
2023/04/14 06:44:13;;;;;;;1.35;0.82;;;4.10;99.90;;;;;;5052091;28;20052;-65
2023/04/14 06:46:39;;;;;;;1.10;0.80;;;4.10;99.90;;;;;;5050258;28;20140;-65
2023/04/14 06:49:04;;;;;;;1.35;0.80;;;4.20;99.90;;;;;;5034491;28;20120;-65
2023/04/14 06:51:33;;;;;;;1.45;1.00;;;4.20;99.90;;;;;;5052348;28;20511;-73
2023/04/14 06:53:59;;;;;;;1.17;0.77;;;4.20;99.90;;;;;;5052350;28;20025;-64
2023/04/14 06:56:25;;;;;;;2.45;0.90;;;4.20;99.90;;;;;;5052282;28;20489;-64
2023/04/14 06:58:51;;;;;;;0.98;0.65;;;4.30;99.90;;;;;;5051348;28;20037;-64
2023/04/14 07:01:16;;;;;;;1.30;0.82;;;4.30;99.90;;;;;;5051808;28;20025;-64
2023/04/14 07:03:43;;;;;;;1.60;1.00;;;4.30;99.90;;;;;;5051800;28;20025;-66
2023/04/14 07:06:12;;;;;;;1.08;0.93;;;4.30;99.90;;;;;;5054344;28;20033;-65
2023/04/14 07:08:39;;;;;;;0.80;0.60;;;4.30;99.90;;;;;;5056359;28;20060;-65
2023/04/14 07:11:07;;;;;;;1.23;0.90;;;4.30;99.90;;;;;;5053868;28;20040;-65
2023/04/14 07:13:33;;;;;;;1.25;0.80;;;4.30;99.90;;;;;;5055980;28;20378;-66
2023/04/14 07:16:01;;;;;;;0.95;0.63;;;4.30;99.90;;;;;;5053946;28;20029;-66
2023/04/14 07:18:26;;;;;;;2.75;0.80;;;4.30;99.90;;;;;;5061750;28;20086;-65
2023/04/14 07:20:55;;;;;;;0.68;0.60;;;4.30;99.90;;;;;;5057672;28;20052;-65
2023/04/14 07:23:21;;;;;;;0.73;0.60;;;4.40;99.90;;;;;;5067006;28;20085;-65
2023/04/14 07:25:51;;;;;;;1.15;0.90;;;4.40;99.90;;;;;;5055872;28;20033;-65
2023/04/14 07:28:17;;;;;;;0.60;0.60;;;4.40;99.90;;;;;;5066332;28;20474;-65
2023/04/14 07:30:43;;;;;;;0.90;0.80;;;4.40;99.90;;;;;;5067822;28;20107;-65
2023/04/14 07:33:09;;;;;;;1.00;0.70;;;4.40;99.90;;;;;;5061089;28;20425;-65
2023/04/14 07:35:34;;;;;;;2.13;0.90;;;4.40;99.90;;;;;;5071823;28;20028;-65
2023/04/14 07:38:00;;;;;;;1.85;1.08;;;4.40;99.90;;;;;;5057476;28;20330;-65
2023/04/14 07:40:26;;;;;;;1.20;0.77;;;4.50;99.90;;;;;;5057213;28;20033;-64
2023/04/14 07:42:51;;;;;;;1.45;1.00;;;4.50;99.90;;;;;;5055567;28;20106;-64
2023/04/14 07:45:17;;;;;;;2.55;1.23;;;4.50;99.90;;;;;;5056859;28;20508;-65
2023/04/14 07:47:43;;;;;;;1.92;1.10;;;4.50;99.90;;;;;;5056559;28;20033;-66
2023/04/14 07:50:09;;;;;;;1.15;0.90;;;4.50;99.90;;;;;;5053915;28;20485;-65
2023/04/14 07:52:35;;;;;;;3.28;1.10;;;4.50;99.90;;;;;;5055056;28;20028;-71
2023/04/14 07:55:01;;;;;;;2.22;0.95;;;4.60;99.90;;;;;;5051829;28;20025;-69
2023/04/14 07:57:27;;;;;;;1.00;0.90;;;4.50;99.90;;;;;;5054574;28;20411;-63
2023/04/14 07:59:53;;;;;;;0.80;0.73;;;4.50;99.90;;;;;;5055048;28;20036;-64
2023/04/14 08:02:18;;;;;;;1.73;0.70;;;4.50;99.90;;;;;;5054906;28;20028;-64
2023/04/14 08:04:44;;;;;;;1.33;0.90;;;4.50;99.90;;;;;;5055018;28;20036;-64
2023/04/14 08:07:10;;;;;;;1.42;1.00;;;4.60;99.90;;;;;;5055524;28;20108;-63
2023/04/14 08:09:35;;;;;;;1.42;0.90;;;4.60;99.90;;;;;;5054975;28;20035;-64
2023/04/14 08:12:01;;;;;;;1.63;1.10;;;4.60;99.90;;;;;;5054603;28;20376;-65
2023/04/14 08:14:27;;;;;;;0.82;0.80;;;4.60;99.90;;;;;;5055002;28;20104;-65
2023/04/14 08:16:53;;;;;;;3.30;1.30;;;4.60;99.90;;;;;;5053122;28;20025;-63
2023/04/14 08:19:18;;;;;;;1.30;1.20;;;4.60;99.90;;;;;;5037225;28;20381;-65
2023/04/14 08:21:44;;;;;;;1.98;1.00;;;4.60;99.90;;;;;;5054421;28;20102;-66
2023/04/14 08:24:09;;;;;;;3.00;0.90;;;4.60;99.90;;;;;;5055017;28;20033;-64
2023/04/14 08:26:35;;;;;;;1.00;1.00;;;4.60;99.90;;;;;;5055035;28;20033;-67
2023/04/14 08:29:01;;;;;;;1.60;0.90;;;4.60;99.90;;;;;;5054189;28;20039;-64
2023/04/14 08:31:26;;;;;;;2.55;1.08;;;4.60;99.90;;;;;;5053654;28;20025;-64
2023/04/14 08:33:52;;;;;;;1.52;1.00;;;4.60;99.90;;;;;;5054461;28;20036;-65
2023/04/14 08:36:18;;;;;;;2.08;0.80;;;4.60;99.90;;;;;;5054976;28;20028;-64
2023/04/14 08:38:44;;;;;;;1.30;0.93;;;4.60;99.90;;;;;;5053609;28;20029;-65
2023/04/14 08:41:13;;;;;;;1.85;0.98;;;4.60;99.90;;;;;;5055049;28;20154;-65
2023/04/14 08:43:39;;;;;;;1.75;0.85;;;4.60;99.90;;;;;;5046569;28;20045;-71
2023/04/14 08:46:06;;;;;;;0.60;0.60;;;4.60;99.90;;;;;;5034826;28;20034;-65
2023/04/14 08:48:34;;;;;;;3.13;0.98;;;4.50;99.90;;;;;;5034836;28;20025;-65
2023/04/14 08:51:27;;;;;;;1.50;1.00;;;4.50;99.90;;;;;;5034173;28;20036;-64
2023/04/14 08:53:55;;;;;;;0.95;0.90;;;4.60;99.90;;;;;;5034364;28;20025;-65
2023/04/14 08:56:26;;;;;;;1.30;0.93;;;4.50;99.90;;;;;;5034482;28;20033;-63
2023/04/14 08:58:52;;;;;;;0.88;0.80;;;4.50;99.90;;;;;;5034409;28;20112;-64
2023/04/14 09:01:18;;;;;;;1.00;0.90;;;4.50;99.90;;;;;;5034570;28;20029;-64
2023/04/14 09:03:44;;;;;;;2.90;1.35;;;4.50;99.90;;;;;;5033254;28;20030;-65
2023/04/14 09:06:11;;;;;;;1.40;0.80;;;4.60;99.90;;;;;;5034601;28;20033;-65
2023/04/14 09:08:37;;;;;;;1.30;0.93;;;4.50;99.90;;;;;;5034536;28;20025;-63
2023/04/14 09:11:03;;;;;;;1.85;1.00;;;4.50;99.90;;;;;;5033543;28;20026;-64
2023/04/14 09:13:30;;;;;;;1.00;0.70;;;4.50;99.90;;;;;;5034117;28;20091;-63
2023/04/14 09:15:56;;;;;;;1.15;0.90;;;4.40;99.90;;;;;;5033678;28;20037;-64
2023/04/14 09:18:23;;;;;;;1.20;0.90;;;4.40;99.90;;;;;;5033923;28;20025;-63
2023/04/14 09:20:48;;;;;;;0.82;0.60;;;4.40;99.90;;;;;;5033462;28;20061;-63
2023/04/14 09:23:14;;;;;;;1.80;0.90;;;4.40;99.90;;;;;;5033924;28;20486;-64
2023/04/14 09:25:41;;;;;;;1.13;0.90;;;4.40;99.90;;;;;;5033703;28;20038;-64
2023/04/14 09:28:07;;;;;;;0.88;0.65;;;4.40;99.90;;;;;;5033783;28;20390;-64
2023/04/14 09:30:33;;;;;;;2.10;0.57;;;4.40;99.90;;;;;;5033942;28;20029;-63
2023/04/14 09:33:03;;;;;;;1.42;0.95;;;4.40;99.90;;;;;;5033404;28;20021;-63
2023/04/14 09:35:46;;;;;;;1.38;0.75;;;4.40;99.90;;;;;;5033921;28;20466;-64
2023/04/14 09:38:12;;;;;;;1.73;0.80;;;4.40;99.90;;;;;;5033797;28;20029;-64
2023/04/14 09:40:40;;;;;;;1.23;0.80;;;4.40;99.90;;;;;;5033852;28;20041;-65
2023/04/14 09:43:06;;;;;;;0.75;0.57;;;4.30;99.90;;;;;;5033132;28;20033;-65
2023/04/14 09:45:44;;;;;;;0.98;0.80;;;4.30;99.90;;;;;;5033629;28;20044;-65
2023/04/14 09:48:13;;;;;;;2.35;0.70;;;4.30;99.90;;;;;;5033604;28;20036;-65
2023/04/14 09:50:59;;;;;;;2.50;0.90;;;4.30;99.90;;;;;;5032843;28;20033;-64
2023/04/14 09:53:36;;;;;;;0.60;0.60;;;4.30;99.90;;;;;;5032209;28;20029;-65
2023/04/14 09:56:07;;;;;;;1.20;0.60;;;4.20;99.90;;;;;;5041246;28;20147;-64
2023/04/14 09:58:34;;;;;;;;;;;4.20;99.90;;;;;;5053095;28;20036;-64
2023/04/14 10:01:02;;;;;;;1.15;0.47;;;4.20;99.90;;;;;;5052836;28;19991;-64
2023/04/14 10:03:33;;;;;;;1.30;0.70;;;4.20;99.90;;;;;;5052872;28;20389;-64
2023/04/14 10:05:59;;;;;;;1.38;0.80;;;4.10;99.90;;;;;;5051338;28;20042;-65
2023/04/14 10:08:38;;;;;;;0.60;0.50;;;4.10;99.90;;;;;;5053045;28;20040;-64
2023/04/14 10:11:14;;;;;;;1.52;0.70;;;4.10;99.90;;;;;;5052820;28;20108;-65
2023/04/14 10:13:41;;;;;;;1.08;0.70;;;4.10;99.90;;;;;;5053037;28;20052;-65
2023/04/14 10:16:07;;;;;;;1.20;0.68;;;4.10;99.90;;;;;;5052623;28;20142;-65
2023/04/14 10:18:33;;;;;;;0.73;0.50;;;4.20;99.90;;;;;;5052875;28;20024;-64
2023/04/14 10:21:00;;;;;;;1.55;0.70;;;4.20;99.90;;;;;;5052515;28;20033;-65
2023/04/14 10:23:26;;;;;;;0.95;0.63;;;4.10;99.90;;;;;;5052818;28;20025;-65
2023/04/14 10:25:54;;;;;;;0.95;0.70;;;4.20;99.90;;;;;;5052396;28;20041;-65
2023/04/14 10:28:21;;;;;;;0.60;0.55;;;4.20;99.90;;;;;;5052800;28;20151;-65
2023/04/14 10:30:49;;;;;;;0.60;0.52;;;4.20;99.90;;;;;;5052471;28;20109;-67
2023/04/14 10:33:14;;;;;;;1.13;0.77;;;4.20;99.90;;;;;;5051585;28;20414;-64
2023/04/14 10:35:44;;;;;;;1.98;0.73;;;4.20;99.90;;;;;;5052717;28;20072;-64
2023/04/14 10:38:09;;;;;;;0.88;0.63;;;4.20;99.90;;;;;;5052284;28;20029;-65
2023/04/14 10:40:50;;;;;;;1.45;0.90;;;4.20;99.90;;;;;;5052656;28;20090;-64
2023/04/14 10:43:16;;;;;;;2.25;0.70;;;4.20;99.90;;;;;;5052613;28;20079;-65
2023/04/14 10:45:58;;;;;;;1.02;0.80;;;4.20;99.90;;;;;;5052269;28;20512;-64
2023/04/14 10:48:35;;;;;;;3.17;1.02;;;4.20;99.90;;;;;;5044607;28;20017;-65
2023/04/14 10:51:03;;;;;;;1.13;0.70;;;4.20;99.90;;;;;;5032261;28;20033;-65
2023/04/14 10:53:37;;;;;;;0.55;0.55;;;4.20;99.90;;;;;;5032500;28;20034;-65
2023/04/14 10:56:04;;;;;;;1.25;0.50;;;4.20;99.90;;;;;;5032099;28;20043;-64
2023/04/14 10:58:33;;;;;;;1.05;0.70;;;4.20;99.90;;;;;;5032505;28;20424;-65
2023/04/14 11:00:59;;;;;;;3.15;0.63;;;4.20;99.90;;;;;;5033779;28;20428;-65
2023/04/14 11:03:31;;;;;;;1.75;0.60;;;4.20;99.90;;;;;;5036248;28;20029;-64
2023/04/14 11:05:57;;;;;;;1.08;0.60;;;4.20;99.90;;;;;;5035939;28;20489;-64
2023/04/14 11:08:33;;;;;;;0.93;0.70;;;4.20;99.90;;;;;;5036242;28;20022;-64
2023/04/14 11:11:04;;;;;;;1.35;0.90;;;4.10;99.90;;;;;;5036126;28;20021;-64
2023/04/14 11:13:31;;;;;;;1.73;0.80;;;4.10;99.90;;;;;;5036701;28;20037;-64
2023/04/14 11:16:04;;;;;;;1.88;0.77;;;4.10;99.90;;;;;;5035708;28;20033;-64
2023/04/14 11:18:30;;;;;;;2.35;0.90;;;4.10;99.90;;;;;;5036383;28;20026;-64
2023/04/14 11:21:13;;;;;;;2.10;0.70;;;4.10;99.90;;;;;;5035777;28;20129;-64
2023/04/14 11:23:42;;;;;;;0.98;0.60;;;4.20;99.90;;;;;;5036294;28;20032;-64
2023/04/14 11:26:10;;;;;;;1.23;0.70;;;4.10;99.90;;;;;;5035493;28;20037;-64
2023/04/14 11:28:37;;;;;;;0.70;0.57;;;4.10;99.90;;;;;;5034456;28;20034;-64
2023/04/14 11:31:07;;;;;;;0.85;0.50;;;4.10;99.90;;;;;;5035726;28;20030;-64
2023/04/14 11:33:37;;;;;;;0.90;0.63;;;4.10;99.90;;;;;;5035988;28;20080;-65
2023/04/14 11:36:05;;;;;;;0.68;0.68;;;4.10;99.90;;;;;;5035563;28;20052;-64
2023/04/14 11:38:34;;;;;;;0.85;0.68;;;4.10;99.90;;;;;;5036008;28;20025;-64
2023/04/14 11:41:01;;;;;;;0.98;0.70;;;4.00;99.90;;;;;;5035569;28;20018;-64
2023/04/14 11:43:29;;;;;;;1.08;0.60;;;4.00;99.90;;;;;;5035647;28;20054;-65
2023/04/14 11:45:57;;;;;;;0.65;0.50;;;4.10;99.90;;;;;;5035575;28;20076;-66
2023/04/14 11:48:23;;;;;;;0.82;0.60;;;4.10;99.90;;;;;;5035785;28;20032;-64
2023/04/14 11:50:48;;;;;;;0.70;0.63;;;4.10;99.90;;;;;;5035809;28;20171;-65
2023/04/14 11:53:16;;;;;;;0.93;0.73;;;4.10;99.90;;;;;;5035174;28;20504;-65
2023/04/14 11:55:47;;;;;;;1.42;0.63;;;4.10;99.90;;;;;;5045129;28;20032;-65
2023/04/14 11:58:14;;;;;;;1.05;0.50;;;4.10;99.90;;;;;;5054658;28;20388;-65
2023/04/14 12:00:41;;;;;;;1.80;0.70;;;4.20;99.90;;;;;;5055557;28;20029;-64
2023/04/14 12:03:07;;;;;;;0.82;0.77;;;4.10;99.90;;;;;;5054910;28;20067;-65
2023/04/14 12:05:34;;;;;;;1.10;0.80;;;4.20;99.90;;;;;;5055456;28;20029;-65
2023/04/14 12:08:07;;;;;;;1.38;1.05;;;4.20;99.90;;;;;;5054831;28;20029;-65
2023/04/14 12:10:36;;;;;;;1.70;0.70;;;4.20;99.90;;;;;;5055453;28;20496;-65
2023/04/14 12:13:07;;;;;;;1.20;0.70;;;4.20;99.90;;;;;;5054710;28;20496;-65
2023/04/14 12:15:37;;;;;;;1.02;0.70;;;4.20;99.90;;;;;;5056579;28;20091;-65
2023/04/14 12:18:05;;;;;;;0.90;0.70;;;4.20;99.90;;;;;;5055844;28;20053;-65
2023/04/14 12:20:53;;;;;;;1.48;0.73;;;4.20;99.90;;;;;;5055506;28;20028;-64
2023/04/14 12:23:19;;;;;;;0.93;0.60;;;4.20;99.90;;;;;;5054789;28;20078;-64
2023/04/14 12:25:48;;;;;;;0.65;0.50;;;4.30;99.90;;;;;;5055014;28;20404;-65
2023/04/14 12:28:33;;;;;;;1.20;0.65;;;4.20;99.90;;;;;;5053362;28;20450;-65
2023/04/14 12:31:02;;;;;;;1.02;0.63;;;4.30;99.90;;;;;;5054676;28;20469;-65
2023/04/14 12:33:30;;;;;;;2.38;0.80;;;4.30;99.90;;;;;;5054999;28;20481;-65
2023/04/14 12:36:04;;;;;;;0.80;0.60;;;4.30;99.90;;;;;;5054933;28;20039;-64
2023/04/14 12:38:31;;;;;;;0.80;0.60;;;4.30;99.90;;;;;;5054817;28;20087;-64
2023/04/14 12:40:57;;;;;;;0.88;0.70;;;4.30;99.90;;;;;;5054614;28;20060;-72
2023/04/14 12:43:40;;;;;;;0.80;0.68;;;4.30;99.90;;;;;;5054639;28;20029;-65
2023/04/14 12:46:06;;;;;;;5.28;0.90;;;4.30;99.90;;;;;;5054062;28;20420;-64
2023/04/14 12:48:38;;;;;;;1.27;0.77;;;4.30;99.90;;;;;;5039445;28;20101;-64
2023/04/14 12:51:12;;;;;;;1.23;0.70;;;4.30;99.90;;;;;;5034245;28;20017;-66
2023/04/14 12:53:38;;;;;;;0.73;0.63;;;4.30;99.90;;;;;;5048425;28;20025;-65
2023/04/14 12:56:06;;;;;;;1.00;0.70;;;4.30;99.90;;;;;;5053566;28;20079;-65
2023/04/14 12:58:45;;;;;;;1.73;0.90;;;4.30;99.90;;;;;;5054042;28;20029;-64
2023/04/14 13:01:12;;;;;;;1.70;0.90;;;4.30;99.90;;;;;;5052464;28;20032;-65
2023/04/14 13:03:54;;;;;;;1.23;0.63;;;4.30;99.90;;;;;;5053437;28;20028;-68